createdAt,value
2019-04-26T00:00:45.592Z,24
2019-04-26T00:05:45.581Z,20
2019-04-26T00:10:46.316Z,23
2019-04-26T00:15:45.612Z,20
2019-04-26T00:20:45.563Z,23
2019-04-26T00:25:45.583Z,21
2019-04-26T00:30:46.602Z,24
2019-04-26T00:35:48.372Z,20
2019-04-26T00:40:45.531Z,21
2019-04-26T00:45:45.504Z,22
2019-04-26T00:50:45.544Z,22
2019-04-26T00:55:45.507Z,18
2019-04-26T01:00:45.581Z,22
2019-04-26T01:05:45.576Z,22
2019-04-26T01:10:45.488Z,21
2019-04-26T01:15:45.560Z,22
2019-04-26T01:20:52.538Z,21
2019-04-26T01:25:55.162Z,22
2019-04-26T01:30:55.130Z,28
2019-04-26T01:35:55.148Z,22
2019-04-26T01:40:55.119Z,22
2019-04-26T01:45:55.125Z,20
2019-04-26T01:50:55.102Z,22
2019-04-26T01:55:55.064Z,21
2019-04-26T02:00:55.138Z,22
2019-04-26T02:05:55.107Z,26
2019-04-26T02:10:55.080Z,23
2019-04-26T02:15:59.604Z,23
2019-04-26T02:20:55.060Z,22
2019-04-26T02:25:55.104Z,24
2019-04-26T02:27:47.969Z,28
2019-04-26T02:32:47.930Z,21
2019-04-26T02:37:47.928Z,21
2019-04-26T02:42:47.954Z,22
2019-04-26T02:47:47.939Z,20
2019-04-26T02:52:47.908Z,26
2019-04-26T02:57:48.055Z,20
2019-04-26T03:02:47.960Z,20
2019-04-26T03:07:47.949Z,22
2019-04-26T03:12:47.902Z,23
2019-04-26T03:17:47.911Z,21
2019-04-26T03:22:47.919Z,21
2019-04-26T03:27:47.915Z,23
2019-04-26T03:32:54.596Z,23
2019-04-26T03:37:47.890Z,28
2019-04-26T03:42:47.865Z,26
2019-04-26T03:47:47.940Z,25
2019-04-26T03:52:47.875Z,29
2019-04-26T03:57:47.857Z,26
2019-04-26T04:02:48.020Z,26
2019-04-26T04:07:51.771Z,23
2019-04-26T04:12:47.880Z,23
2019-04-26T04:17:50.529Z,26
2019-04-26T04:22:49.537Z,26
2019-04-26T04:27:49.480Z,23
2019-04-26T04:32:52.326Z,25
2019-04-26T04:38:10.169Z,25
2019-04-26T04:48:21.049Z,25
2019-04-26T04:53:20.985Z,23
2019-04-26T04:58:20.991Z,26
2019-04-26T05:03:31.280Z,31
2019-04-26T05:08:20.963Z,23
2019-04-26T05:13:20.941Z,22
2019-04-26T05:18:20.945Z,23
2019-04-26T05:23:24.528Z,40
2019-04-26T05:28:20.904Z,28
2019-04-26T05:33:20.986Z,27
2019-04-26T05:38:20.957Z,20
2019-04-26T05:43:20.899Z,23
2019-04-26T05:48:20.914Z,42
2019-04-26T05:53:20.966Z,25
2019-04-26T05:58:22.455Z,25
2019-04-26T06:03:20.910Z,26
2019-04-26T06:08:31.833Z,22
2019-04-26T06:13:20.946Z,22
2019-04-26T06:18:22.217Z,22
2019-04-26T06:23:20.858Z,22
2019-04-26T06:28:20.870Z,23
2019-04-26T06:33:20.896Z,16
2019-04-26T06:38:20.856Z,17
2019-04-26T06:43:20.868Z,16
2019-04-26T06:48:20.901Z,15
2019-04-26T06:53:20.856Z,17
2019-04-26T06:58:20.868Z,15
2019-04-26T07:03:20.868Z,12
2019-04-26T07:08:21.647Z,12
2019-04-26T07:13:22.393Z,12
2019-04-26T07:18:22.318Z,10
2019-04-26T07:23:22.365Z,13
2019-04-26T07:28:22.540Z,12
2019-04-26T07:33:22.338Z,10
2019-04-26T07:38:22.335Z,9
2019-04-26T07:43:22.348Z,12
2019-04-26T07:48:23.089Z,12
2019-04-26T07:53:23.107Z,11
2019-04-26T07:58:24.250Z,10
2019-04-26T08:03:23.033Z,10
2019-04-26T08:08:23.057Z,10
2019-04-26T08:13:23.065Z,8
2019-04-26T08:18:23.068Z,5
2019-04-26T08:23:43.298Z,8
2019-04-26T08:28:26.198Z,8
2019-04-26T08:33:26.169Z,7
2019-04-26T08:38:26.159Z,9
2019-04-26T08:48:33.864Z,8
2019-04-26T08:53:33.887Z,6
2019-04-26T08:58:33.824Z,6
2019-04-26T09:03:33.800Z,7
2019-04-26T09:08:33.825Z,5
2019-04-26T09:13:33.797Z,7
2019-04-26T09:18:55.795Z,6
2019-04-26T09:23:50.974Z,7
2019-04-26T09:28:33.823Z,4
2019-04-26T09:33:37.560Z,5
2019-04-26T09:38:33.757Z,5
2019-04-26T09:43:33.799Z,3
2019-04-26T09:48:36.892Z,6
2019-04-26T09:53:33.755Z,5
2019-04-26T09:58:35.048Z,6
2019-04-26T10:03:34.576Z,5
2019-04-26T10:08:33.818Z,6
2019-04-26T10:13:33.745Z,6
2019-04-26T10:18:33.778Z,5
2019-04-26T10:23:33.928Z,6
2019-04-26T10:28:33.770Z,7
2019-04-26T10:33:37.946Z,5
2019-04-26T10:38:33.725Z,6
2019-04-26T10:43:33.754Z,3
2019-04-26T10:48:33.733Z,8
2019-04-26T10:53:33.703Z,6
2019-04-26T10:58:37.919Z,4
2019-04-26T11:03:35.205Z,5
2019-04-26T11:08:33.735Z,5
2019-04-26T11:13:33.735Z,7
2019-04-26T11:18:33.705Z,6
2019-04-26T11:23:33.701Z,6
2019-04-26T11:28:33.702Z,6
2019-04-26T11:33:50.579Z,8
2019-04-26T11:38:34.014Z,6
2019-04-26T11:43:33.723Z,7
2019-04-26T11:48:33.699Z,8
2019-04-26T11:53:33.763Z,7
2019-04-26T11:58:33.652Z,4
2019-04-26T12:03:33.686Z,7
2019-04-26T12:08:33.711Z,7
2019-04-26T12:13:33.753Z,6
2019-04-26T12:18:33.981Z,9
2019-04-26T12:23:36.664Z,9
2019-04-26T12:28:41.470Z,8
2019-04-26T12:33:45.242Z,8
2019-04-26T12:38:36.368Z,7
2019-04-26T12:43:36.358Z,8
2019-04-26T12:48:36.367Z,8
2019-04-26T12:53:36.319Z,10
2019-04-26T12:58:36.375Z,10
2019-04-26T13:03:36.382Z,8
2019-04-26T13:08:36.361Z,9
2019-04-26T13:13:36.366Z,8
2019-04-26T13:18:36.364Z,8
2019-04-26T13:23:36.338Z,10
2019-04-26T13:28:36.326Z,7
2019-04-26T13:33:36.344Z,8
2019-04-26T13:38:45.226Z,11
2019-04-26T13:43:36.356Z,10
2019-04-26T13:48:45.560Z,10
2019-04-26T13:53:36.338Z,10
2019-04-26T13:58:36.307Z,10
2019-04-26T14:03:36.330Z,9
2019-04-26T14:08:36.312Z,13
2019-04-26T14:13:36.309Z,12
2019-04-26T14:18:40.882Z,12
2019-04-26T14:23:39.423Z,11
2019-04-26T14:28:36.281Z,11
2019-04-26T14:33:36.276Z,8
2019-04-26T14:38:41.546Z,12
2019-04-26T14:43:41.808Z,11
2019-04-26T14:49:05.925Z,9
2019-04-26T14:53:38.151Z,9
2019-04-26T14:58:36.252Z,9
2019-04-26T15:03:36.289Z,15
2019-04-26T15:08:36.254Z,13
2019-04-26T15:13:44.023Z,11
2019-04-26T15:18:40.179Z,11
2019-04-26T15:23:40.130Z,11
2019-04-26T15:28:51.719Z,12
2019-04-26T15:33:50.253Z,14
2019-04-26T15:38:45.098Z,14
2019-04-26T15:43:40.151Z,14
2019-04-26T15:48:40.270Z,13
2019-04-26T15:53:49.857Z,14
2019-04-26T15:58:49.289Z,14
2019-04-26T16:03:44.804Z,14
2019-04-26T16:08:44.072Z,13
2019-04-26T16:13:40.111Z,11
2019-04-26T16:18:40.120Z,10
2019-04-26T16:23:55.644Z,16
2019-04-26T16:28:45.949Z,15
2019-04-26T16:33:44.859Z,15
2019-04-26T16:38:40.097Z,32
2019-04-26T16:43:54.665Z,13
2019-04-26T16:51:09.253Z,14
2019-04-26T16:56:06.474Z,15
2019-04-26T17:03:48.551Z,15
2019-04-26T17:09:00.443Z,16
2019-04-26T17:14:00.253Z,20
2019-04-26T17:18:40.118Z,18
2019-04-26T17:23:40.091Z,21
2019-04-26T17:28:40.062Z,23
2019-04-26T17:33:40.082Z,28
2019-04-26T17:34:30.378Z,28
2019-04-26T17:39:22.798Z,22
2019-04-26T17:44:28.413Z,20
2019-04-26T17:49:34.299Z,31
2019-04-26T17:54:51.526Z,27
2019-04-26T17:59:37.142Z,24
2019-04-26T18:04:41.208Z,19
2019-04-26T18:09:46.974Z,42
2019-04-26T18:14:32.050Z,22
2019-04-26T18:19:33.312Z,22
2019-04-26T18:24:20.948Z,19
2019-04-26T18:29:30.517Z,16
2019-04-26T18:34:20.964Z,45
2019-04-26T18:39:29.743Z,27
2019-04-26T18:47:45.497Z,23
2019-04-26T18:52:44.217Z,20
2019-04-26T18:58:03.655Z,21
2019-04-26T19:02:44.215Z,25
2019-04-26T19:07:51.713Z,19
2019-04-26T19:12:44.165Z,19
2019-04-26T19:17:44.291Z,21
2019-04-26T19:22:53.396Z,18
2019-04-26T19:27:54.174Z,21
2019-04-26T19:32:44.940Z,19
2019-04-26T19:37:44.994Z,20
2019-04-26T19:42:44.968Z,20
2019-04-26T19:47:44.973Z,16
2019-04-26T20:26:22.788Z,18
2019-04-26T20:31:20.747Z,20
2019-04-26T20:36:21.821Z,19
2019-04-26T20:41:22.411Z,18
2019-04-26T20:46:25.298Z,17
2019-04-26T20:51:24.564Z,18
2019-04-26T20:56:25.859Z,19
2019-04-26T21:36:26.117Z,21
2019-04-26T21:41:26.065Z,20
2019-04-26T21:46:29.173Z,18
2019-04-26T21:51:26.012Z,19
2019-04-26T21:56:26.057Z,18
2019-04-26T22:01:26.064Z,18
2019-04-26T22:06:29.095Z,21
2019-04-26T22:11:26.030Z,19
2019-04-26T22:16:38.284Z,19
2019-04-26T22:21:30.197Z,20
2019-04-26T22:26:26.008Z,19
2019-04-26T22:31:25.982Z,21
2019-04-26T22:36:36.265Z,19
2019-04-26T22:41:29.838Z,22
2019-04-26T22:46:49.190Z,22
2019-04-26T22:51:37.369Z,22
2019-04-26T22:56:25.983Z,21
2019-04-26T23:01:25.975Z,21
2019-04-26T23:11:26.780Z,16
2019-04-26T23:16:26.695Z,18
2019-04-26T23:21:26.741Z,21
2019-04-26T23:26:27.547Z,20
2019-04-26T23:31:27.428Z,20
2019-04-26T23:36:27.450Z,21
2019-04-26T23:41:27.453Z,17
2019-04-26T23:46:27.441Z,22
2019-04-26T23:51:27.468Z,19
2019-04-26T23:56:27.431Z,18
